Urbandale, IA (50322)

5:22 AM CDT on May 25, 2017 (GMT -0500)
Cross Creek West | | Change Station
Active Advisory: Flood Warning

Elev 898 ft 41.64 °N, 93.74 °W | Updated 2 seconds ago

Partly Cloudy
Partly Cloudy
42.4 °F
Feels Like 42 °F
N
0.0
Wind Variable Wind from SW
Gusts 0.0 mph

Today
High -- | Low -- °F
--% Chance of Precip.
Yesterday
High -- | Low -- °F
Precip. -- in
Pressure 29.69 in
Visibility 10.0 miles
Clouds Few 100 ft
Windchill 42 °F
Dew Point 42 °F
Humidity 99%
Rainfall 0.00 in
Snow Depth Not available.
5:46 AM 8:37 PM
Waning Crescent, 0% visible
METAR KDSM 250954Z 00000KT 10SM BCFG FEW001 08/07 A2969 RMK AO2 SLP052 T00830067
Pressure 29.69 in
Visibility 10.0 miles
Clouds Few 100 ft
Windchill 42 °F
Dew Point 42 °F
Humidity 99%
Rainfall 0.00 in
Snow Depth Not available.
5:46 AM 8:37 PM
Waning Crescent, 0% visible
METAR KDSM 250954Z 00000KT 10SM BCFG FEW001 08/07 A2969 RMK AO2 SLP052 T00830067

Get Your Daily Forecast Email!

Thanks for signing up!

Be on the lookout for a verification email in your inbox.

You'll start receiving severe weather alerts in your inbox..

×

10-Day Weather Forecast

Almanac

Astronomy

May. 25, 2017 Rise Set
Actual Time
Civil Twilight
Nautical Twilight
Astronomical Twilight
Moon
Length of Visible Light
Length of Day
Tomorrow will be .
, % of the Moon is Illuminated

Today's Extremes

State Highs State Lows

Community

WunderPhotos

Category 6

Welcome to Category 6. This is the collective home for Weather Underground's featured writeups by Dr. Jeff Masters (right), Bob Henson (left), Chris Burt, and other regular contributors.

Nearby

Air Quality

  Air Quality AQ Index Pollutant
Not available.

Snow Depth

Station Depth Elevation

Earthquake Activity

City Distance Mag. Time & Date
Minimum magnitude displayed is 2.5.

Coastal Water Temperatures

Place Temperature

Stations

Nearby Weather Stations

Station Location Temp. Windchill Dew Point Humidity Wind Precip. Elev Updated Type
                   

Watches & Warnings

Flood Warning
Issued: 3:47 AM CDT May. 25, 2017 – National Weather Service

... Flood Warning remains in effect until this evening...

The Flood Warning continues for
the Des Moines River at Des Moines se 6th St... or from below the
center street dam... to Runnells.
* Until this evening.
* At 3:00 am Thursday the stage was 24.0 feet.
* Flood stage is 24.0 feet.
* Minor flooding is occurring and is forecast to continue.
* Forecast... continue falling and go below flood stage this evening.
* Impact... at 24.0 feet... the bike trail is closed east of Water
Street. Portions of other bike trails are also affected.


Lat... Lon 4159 9356 4152 9333 4145 9333 4154 9356
      4159 9366 4159 9356